createdAt,value
2023-07-22T00:02:09.434Z,55.05
2023-07-22T00:04:43.446Z,55.26
2023-07-22T00:07:14.668Z,55.16
2023-07-22T00:09:51.607Z,55.13
2023-07-22T00:12:34.425Z,55.04
2023-07-22T00:15:07.670Z,54.86
2023-07-22T00:17:39.960Z,54.91
2023-07-22T00:20:16.722Z,54.72
2023-07-22T00:22:51.582Z,54.69
2023-07-22T00:25:29.201Z,54.67
2023-07-22T00:28:00.868Z,54.59
2023-07-22T00:30:35.516Z,54.54
2023-07-22T00:33:08.083Z,54.57
2023-07-22T00:35:39.670Z,54.46
2023-07-22T00:38:11.880Z,54.62
2023-07-22T00:40:44.763Z,54.75
2023-07-22T00:43:15.584Z,54.89
2023-07-22T00:45:46.277Z,55.01
2023-07-22T00:48:17.926Z,55.13
2023-07-22T00:50:51.290Z,55.24
2023-07-22T00:53:21.927Z,55.31
2023-07-22T00:55:52.901Z,55.47
2023-07-22T00:58:23.544Z,55.70
2023-07-22T01:00:54.645Z,56.01
2023-07-22T01:03:26.705Z,55.96
2023-07-22T01:05:59.735Z,56.23
2023-07-22T01:08:30.252Z,56.10
2023-07-22T01:11:01.049Z,56.33
2023-07-22T01:13:34.690Z,56.62
2023-07-22T01:16:06.117Z,56.32
2023-07-22T01:18:37.234Z,56.61
2023-07-22T01:21:08.865Z,56.53
2023-07-22T01:23:41.343Z,56.51
2023-07-22T01:26:12.489Z,56.50
2023-07-22T01:28:43.072Z,56.52
2023-07-22T01:31:14.666Z,56.52
2023-07-22T01:33:48.558Z,56.41
2023-07-22T01:36:19.334Z,56.40
2023-07-22T01:38:51.343Z,56.31
2023-07-22T01:41:22.029Z,56.21
2023-07-22T01:43:52.723Z,56.20
2023-07-22T01:46:23.379Z,56.17
2023-07-22T01:48:57.305Z,56.22
2023-07-22T01:51:27.913Z,56.11
2023-07-22T01:53:58.739Z,56.08
2023-07-22T01:56:29.807Z,55.92
2023-07-22T01:59:01.586Z,55.73
2023-07-22T02:01:32.210Z,55.75
2023-07-22T02:04:04.035Z,55.74
2023-07-22T02:06:35.997Z,55.92
2023-07-22T02:09:09.289Z,55.96
2023-07-22T02:11:40.688Z,55.70
2023-07-22T02:14:14.209Z,55.44
2023-07-22T02:16:46.427Z,55.66
2023-07-22T02:19:17.097Z,55.39
2023-07-22T02:21:49.101Z,55.14
2023-07-22T02:24:19.766Z,55.00
2023-07-22T02:26:51.936Z,54.94
2023-07-22T02:29:22.901Z,54.64
2023-07-22T02:31:57.645Z,54.56
2023-07-22T02:34:28.312Z,54.31
2023-07-22T02:36:58.878Z,53.48
2023-07-22T02:39:29.724Z,52.48
2023-07-22T02:42:00.932Z,51.24
2023-07-22T02:44:31.663Z,50.18
2023-07-22T02:47:02.225Z,48.92
2023-07-22T02:49:33.054Z,47.91
2023-07-22T02:52:08.030Z,47.19
2023-07-22T02:54:45.026Z,46.08
2023-07-22T02:57:16.888Z,44.95
2023-07-22T02:59:47.231Z,44.29
2023-07-22T03:02:18.100Z,43.40
2023-07-22T03:04:48.742Z,42.45
2023-07-22T03:07:21.239Z,41.36
2023-07-22T03:09:51.882Z,40.35
2023-07-22T03:12:22.208Z,39.31
2023-07-22T03:14:57.494Z,38.85
2023-07-22T03:17:33.503Z,37.96
2023-07-22T03:20:09.872Z,37.29
2023-07-22T03:22:41.111Z,36.24
2023-07-22T03:25:12.572Z,35.61
2023-07-22T03:27:44.910Z,34.97
2023-07-22T03:30:18.536Z,34.27
2023-07-22T03:32:52.207Z,33.44
2023-07-22T03:35:23.095Z,32.72
2023-07-22T03:37:57.324Z,32.67
2023-07-22T03:40:31.640Z,31.72
2023-07-22T03:43:05.409Z,31.12
2023-07-22T03:45:37.987Z,30.09
2023-07-22T03:48:11.279Z,29.06
2023-07-22T03:50:42.231Z,28.44
2023-07-22T03:53:12.595Z,27.78
2023-07-22T03:55:43.045Z,27.25
2023-07-22T03:58:13.961Z,27.12
2023-07-22T04:00:45.824Z,27.16
2023-07-22T04:03:17.450Z,26.69
2023-07-22T04:05:56.628Z,26.35
2023-07-22T04:08:28.557Z,25.36
2023-07-22T04:11:01.346Z,24.56
2023-07-22T04:13:34.820Z,24.00
2023-07-22T04:16:06.073Z,23.88
2023-07-22T04:18:36.699Z,22.85
2023-07-22T04:21:07.098Z,22.77
2023-07-22T04:23:38.580Z,22.28
2023-07-22T04:26:10.080Z,22.02
2023-07-22T04:28:42.950Z,21.52
2023-07-22T04:31:14.149Z,21.21
2023-07-22T04:33:45.046Z,20.71
2023-07-22T04:36:15.902Z,19.82
2023-07-22T04:38:46.489Z,19.07
2023-07-22T04:41:17.106Z,19.10
2023-07-22T04:43:48.502Z,18.87
2023-07-22T04:46:19.719Z,18.69
2023-07-22T04:48:51.743Z,18.27
2023-07-22T04:51:22.217Z,17.84
2023-07-22T04:53:53.056Z,17.98
2023-07-22T04:56:25.047Z,17.39
2023-07-22T04:58:56.000Z,16.48
2023-07-22T05:01:26.985Z,16.20
2023-07-22T05:03:58.939Z,15.79
2023-07-22T05:06:31.744Z,15.76
2023-07-22T05:09:06.035Z,14.95
2023-07-22T05:11:36.401Z,14.59
2023-07-22T05:14:11.703Z,14.54
2023-07-22T05:16:42.141Z,14.08
2023-07-22T05:19:12.577Z,14.33
2023-07-22T05:21:43.895Z,14.00
2023-07-22T05:24:15.255Z,13.51
2023-07-22T05:26:58.962Z,13.55
2023-07-22T05:29:38.573Z,13.62
2023-07-22T05:32:27.363Z,13.32
2023-07-22T05:35:03.733Z,13.21
2023-07-22T05:37:36.470Z,13.03
2023-07-22T05:40:13.444Z,12.62
2023-07-22T05:42:50.107Z,12.71
2023-07-22T05:45:24.301Z,12.37
2023-07-22T05:47:57.438Z,12.21
2023-07-22T05:50:30.686Z,12.51
2023-07-22T05:53:04.896Z,12.56
2023-07-22T05:55:37.656Z,12.58
2023-07-22T05:58:18.911Z,12.44
2023-07-22T06:00:59.266Z,12.45
2023-07-22T06:03:32.173Z,12.03
2023-07-22T06:06:02.959Z,11.96
2023-07-22T06:08:34.051Z,12.13
2023-07-22T06:11:06.410Z,12.21
2023-07-22T06:13:37.560Z,12.23
2023-07-22T06:16:09.199Z,12.13
2023-07-22T06:18:41.732Z,12.16
2023-07-22T06:21:14.339Z,12.68
2023-07-22T06:23:46.515Z,12.45
2023-07-22T06:26:17.264Z,12.14
2023-07-22T06:28:48.270Z,12.37
2023-07-22T06:31:19.775Z,12.80
2023-07-22T06:33:50.780Z,12.41
2023-07-22T06:36:21.802Z,12.66
2023-07-22T06:38:52.540Z,12.41
2023-07-22T06:41:25.526Z,12.13
2023-07-22T06:43:56.753Z,11.60
2023-07-22T06:46:28.100Z,11.34
2023-07-22T06:49:00.764Z,11.06
2023-07-22T06:51:33.987Z,11.15
2023-07-22T06:54:05.111Z,11.26
2023-07-22T06:56:35.639Z,11.06
2023-07-22T06:59:09.942Z,10.67
2023-07-22T07:01:40.272Z,10.30
2023-07-22T07:04:10.848Z,10.49
2023-07-22T07:06:41.877Z,10.91
2023-07-22T07:09:13.164Z,10.93
2023-07-22T07:11:44.057Z,10.61
2023-07-22T07:14:15.203Z,10.60
2023-07-22T07:16:49.103Z,10.46
2023-07-22T07:19:19.660Z,11.32
2023-07-22T07:21:53.728Z,12.58
2023-07-22T07:24:31.929Z,13.73
2023-07-22T07:27:03.102Z,15.43
2023-07-22T07:29:52.980Z,16.77
2023-07-22T07:32:27.405Z,18.19
2023-07-22T07:35:02.315Z,19.38
2023-07-22T07:37:34.577Z,20.20
2023-07-22T07:40:07.234Z,21.06
2023-07-22T07:42:41.987Z,21.55
2023-07-22T07:45:28.172Z,21.74
2023-07-22T07:47:59.300Z,21.91
2023-07-22T07:50:33.734Z,22.48
2023-07-22T07:53:05.268Z,22.75
2023-07-22T07:55:36.181Z,22.75
2023-07-22T07:58:11.269Z,23.00
2023-07-22T08:00:42.324Z,22.99
2023-07-22T08:03:16.981Z,23.18
2023-07-22T08:05:49.849Z,23.57
2023-07-22T08:08:34.727Z,23.98
2023-07-22T08:11:20.178Z,24.16
2023-07-22T08:13:57.871Z,24.16
2023-07-22T08:16:37.555Z,24.37
2023-07-22T08:19:19.732Z,23.91
2023-07-22T08:21:52.080Z,23.90
2023-07-22T08:24:23.485Z,24.36
2023-07-22T08:27:05.498Z,24.75
2023-07-22T08:29:41.428Z,24.71
2023-07-22T08:32:17.946Z,24.82
2023-07-22T08:34:54.183Z,24.53
2023-07-22T08:38:09.224Z,24.48
2023-07-22T08:41:00.653Z,24.35
2023-07-22T08:43:33.702Z,24.28
2023-07-22T08:46:05.456Z,24.72
2023-07-22T08:48:38.740Z,24.64
2023-07-22T08:51:23.768Z,24.59
2023-07-22T08:54:11.232Z,24.63
2023-07-22T08:56:47.950Z,24.41
2023-07-22T08:59:29.093Z,24.13
2023-07-22T09:02:09.376Z,24.01
2023-07-22T09:04:42.927Z,24.46
2023-07-22T09:07:35.419Z,24.61
2023-07-22T09:10:18.245Z,24.64
2023-07-22T09:12:50.312Z,24.55
2023-07-22T09:15:21.822Z,24.63
2023-07-22T09:17:54.968Z,24.64
2023-07-22T09:20:29.667Z,24.72
2023-07-22T09:23:12.580Z,24.76
2023-07-22T09:25:48.909Z,25.35
2023-07-22T09:28:22.408Z,25.18
2023-07-22T09:31:04.845Z,24.96
2023-07-22T09:33:40.022Z,24.84
2023-07-22T09:36:12.746Z,25.05
2023-07-22T09:38:44.140Z,25.22
2023-07-22T09:41:21.629Z,25.07
2023-07-22T09:43:52.277Z,25.12
2023-07-22T09:46:26.923Z,25.10
2023-07-22T09:49:07.460Z,24.94
2023-07-22T09:51:53.076Z,24.65
2023-07-22T09:54:34.213Z,24.84
2023-07-22T09:57:07.309Z,25.11
2023-07-22T09:59:39.030Z,25.08
2023-07-22T10:02:14.319Z,24.82
2023-07-22T10:04:47.635Z,24.85
2023-07-22T10:07:19.129Z,25.18
2023-07-22T10:09:51.643Z,25.11
2023-07-22T10:12:22.383Z,24.86
2023-07-22T10:14:55.371Z,24.79
2023-07-22T10:17:28.104Z,25.05
2023-07-22T10:20:05.051Z,24.86
2023-07-22T10:22:38.516Z,25.16
2023-07-22T10:25:09.940Z,24.91
2023-07-22T10:27:41.822Z,24.73
2023-07-22T10:30:13.708Z,24.55
2023-07-22T10:32:48.393Z,24.42
2023-07-22T10:35:26.176Z,24.62
2023-07-22T10:37:57.317Z,24.81
2023-07-22T10:40:32.291Z,24.59
2023-07-22T10:43:06.368Z,24.68
2023-07-22T10:45:42.624Z,24.62
2023-07-22T10:48:18.841Z,24.60
2023-07-22T10:51:01.347Z,24.64
2023-07-22T10:53:33.244Z,24.44
2023-07-22T10:56:08.884Z,24.74
2023-07-22T10:58:57.218Z,24.76
2023-07-22T11:01:34.551Z,24.70
2023-07-22T11:04:13.177Z,25.14
2023-07-22T11:06:59.397Z,25.20
2023-07-22T11:09:42.103Z,25.05
2023-07-22T11:12:23.198Z,24.93
2023-07-22T11:15:05.693Z,25.08
2023-07-22T11:17:37.856Z,25.13
2023-07-22T11:20:14.085Z,25.23
2023-07-22T11:22:49.033Z,25.32
2023-07-22T11:25:24.387Z,25.31
2023-07-22T11:28:08.572Z,25.07
2023-07-22T11:31:08.780Z,25.33
2023-07-22T11:34:10.303Z,24.98
2023-07-22T11:36:42.719Z,24.92
2023-07-22T11:39:15.066Z,24.72
2023-07-22T11:41:46.224Z,24.65
2023-07-22T11:47:14.272Z,24.70
2023-07-22T11:49:51.742Z,24.68
2023-07-22T11:52:24.688Z,24.75
2023-07-22T11:55:19.610Z,24.66
2023-07-22T11:58:06.802Z,25.28
2023-07-22T12:01:26.874Z,25.21
2023-07-22T12:04:02.325Z,25.41
2023-07-22T12:06:32.576Z,25.33
2023-07-22T12:09:30.908Z,25.36
2023-07-22T12:12:11.170Z,25.31
2023-07-22T12:14:45.410Z,25.28
2023-07-22T12:17:22.955Z,25.42
2023-07-22T12:20:04.185Z,25.22
2023-07-22T12:22:36.742Z,25.25
2023-07-22T12:25:09.594Z,25.22
2023-07-22T12:27:40.601Z,25.33
2023-07-22T12:30:12.682Z,25.37
2023-07-22T12:32:43.708Z,25.38
2023-07-22T12:35:15.052Z,25.38
2023-07-22T12:37:47.115Z,25.12
2023-07-22T12:40:18.228Z,25.17
2023-07-22T12:42:51.559Z,25.10
2023-07-22T12:45:21.970Z,25.30
2023-07-22T12:47:53.354Z,25.17
2023-07-22T12:50:24.704Z,25.25
2023-07-22T12:52:55.654Z,25.34
2023-07-22T12:55:27.520Z,25.48
2023-07-22T12:58:05.882Z,25.06
2023-07-22T13:00:42.108Z,25.32
2023-07-22T13:03:20.427Z,25.55
2023-07-22T13:06:02.672Z,25.27
2023-07-22T13:08:36.298Z,25.18
2023-07-22T13:11:12.010Z,25.14
2023-07-22T13:13:44.419Z,25.05
2023-07-22T13:16:15.368Z,25.10
2023-07-22T13:18:51.565Z,24.72
2023-07-22T13:21:35.270Z,25.02
2023-07-22T13:24:08.261Z,25.03
2023-07-22T13:26:54.391Z,25.13
2023-07-22T13:29:25.733Z,24.85
2023-07-22T13:31:57.329Z,24.90
2023-07-22T13:34:29.457Z,24.86
2023-07-22T13:37:04.012Z,25.03
2023-07-22T13:39:36.167Z,24.59
2023-07-22T13:42:16.577Z,24.86
2023-07-22T13:44:49.780Z,24.53
2023-07-22T13:47:20.552Z,24.44
2023-07-22T13:49:54.045Z,24.22
2023-07-22T13:52:27.274Z,23.95
2023-07-22T13:54:58.235Z,24.32
2023-07-22T13:57:35.423Z,24.49
2023-07-22T14:00:09.392Z,24.68
2023-07-22T14:02:40.904Z,24.43
2023-07-22T14:05:12.253Z,24.35
2023-07-22T14:07:45.490Z,24.63
2023-07-22T14:10:16.498Z,25.00
2023-07-22T14:12:48.199Z,24.77
2023-07-22T14:15:18.982Z,24.89
2023-07-22T14:17:50.350Z,24.79
2023-07-22T14:20:24.295Z,25.12
2023-07-22T14:22:55.271Z,25.06
2023-07-22T14:25:26.884Z,25.22
2023-07-22T14:27:57.813Z,25.04
2023-07-22T14:30:28.808Z,25.43
2023-07-22T14:33:00.224Z,25.39
2023-07-22T14:35:31.171Z,25.74
2023-07-22T14:38:09.058Z,26.06
2023-07-22T14:40:41.660Z,26.17
2023-07-22T14:43:15.594Z,26.37
2023-07-22T14:45:46.825Z,26.47
2023-07-22T14:48:24.849Z,26.72
2023-07-22T14:50:55.964Z,26.96
2023-07-22T14:53:26.651Z,27.00
2023-07-22T14:55:58.040Z,26.99
2023-07-22T14:58:29.028Z,26.88
2023-07-22T15:01:03.750Z,26.94
2023-07-22T15:03:34.878Z,26.82
2023-07-22T15:06:07.990Z,26.85
2023-07-22T15:09:02.030Z,26.99
2023-07-22T15:11:40.758Z,26.95
2023-07-22T15:14:12.022Z,27.20
2023-07-22T15:16:44.109Z,27.08
2023-07-22T15:19:24.528Z,27.15
2023-07-22T15:21:59.319Z,27.42
2023-07-22T15:24:31.395Z,27.45
2023-07-22T15:27:05.002Z,27.71
2023-07-22T15:29:35.363Z,27.69
2023-07-22T15:32:07.730Z,27.86
2023-07-22T15:34:39.198Z,27.81
2023-07-22T15:37:09.886Z,27.85
2023-07-22T15:39:41.722Z,27.93
2023-07-22T15:42:12.647Z,27.99
2023-07-22T15:44:43.300Z,28.08
2023-07-22T15:47:13.930Z,28.30
2023-07-22T15:49:46.136Z,28.41
2023-07-22T15:52:16.878Z,28.53
2023-07-22T15:54:52.502Z,28.96
2023-07-22T15:57:21.718Z,29.08
2023-07-22T15:59:56.165Z,29.25
2023-07-22T16:02:27.010Z,29.37
2023-07-22T16:04:57.497Z,29.58
2023-07-22T16:07:28.035Z,29.81
2023-07-22T16:10:01.755Z,30.00
2023-07-22T16:12:32.326Z,30.49
2023-07-22T16:15:07.262Z,31.39
2023-07-22T16:17:40.110Z,31.65
2023-07-22T16:20:13.765Z,32.58
2023-07-22T16:22:45.585Z,32.92
2023-07-22T16:25:16.101Z,33.80
2023-07-22T16:27:47.619Z,34.36
2023-07-22T16:30:20.614Z,34.30
2023-07-22T16:32:53.937Z,34.58
2023-07-22T16:35:26.957Z,34.86
2023-07-22T16:38:01.109Z,35.20
2023-07-22T16:40:33.439Z,35.68
2023-07-22T16:43:04.320Z,35.84
2023-07-22T16:45:34.861Z,36.56
2023-07-22T16:48:10.472Z,36.62
2023-07-22T16:50:40.947Z,36.96
2023-07-22T16:53:16.944Z,37.24
2023-07-22T16:55:48.339Z,37.28
2023-07-22T16:58:19.118Z,37.47
2023-07-22T17:00:49.968Z,37.65
2023-07-22T17:03:21.259Z,37.70
2023-07-22T17:05:54.737Z,37.62
2023-07-22T17:08:27.812Z,37.89
2023-07-22T17:10:59.629Z,37.96
2023-07-22T17:13:29.896Z,38.05
2023-07-22T17:16:02.989Z,38.65
2023-07-22T17:18:33.287Z,38.43
2023-07-22T17:21:03.850Z,38.59
2023-07-22T17:23:34.643Z,38.96
2023-07-22T17:26:05.525Z,39.11
2023-07-22T17:28:35.898Z,39.26
2023-07-22T17:31:07.553Z,39.09
2023-07-22T17:33:38.408Z,39.63
2023-07-22T17:36:10.576Z,40.02
2023-07-22T17:38:46.669Z,40.03
2023-07-22T17:41:19.286Z,40.42
2023-07-22T17:43:49.993Z,40.43
2023-07-22T17:46:20.938Z,40.74
2023-07-22T17:49:00.293Z,40.96
2023-07-22T17:51:31.766Z,41.24
2023-07-22T17:54:03.683Z,41.58
2023-07-22T17:56:37.128Z,41.45
2023-07-22T17:59:08.268Z,41.82
2023-07-22T18:01:38.695Z,41.80
2023-07-22T18:04:10.812Z,42.04
2023-07-22T18:06:44.388Z,42.19
2023-07-22T18:09:15.310Z,42.23
2023-07-22T18:11:54.293Z,42.45
2023-07-22T18:14:26.981Z,42.50
2023-07-22T18:16:57.540Z,42.65
2023-07-22T18:19:32.860Z,42.71
2023-07-22T18:22:09.160Z,42.74
2023-07-22T18:24:56.273Z,42.88
2023-07-22T18:27:31.281Z,43.12
2023-07-22T18:30:02.428Z,43.16
2023-07-22T18:32:33.996Z,43.47
2023-07-22T18:35:07.047Z,43.50
2023-07-22T18:37:39.773Z,43.74
2023-07-22T18:40:12.310Z,43.90
2023-07-22T18:42:44.832Z,44.07
2023-07-22T18:45:15.924Z,44.20
2023-07-22T18:47:47.431Z,44.52
2023-07-22T18:50:19.988Z,44.71
2023-07-22T18:52:50.418Z,44.71
2023-07-22T18:55:23.252Z,44.98
2023-07-22T18:57:56.558Z,45.12
2023-07-22T19:00:27.935Z,45.32
2023-07-22T19:03:00.350Z,45.45
2023-07-22T19:05:31.417Z,45.52
2023-07-22T19:08:06.180Z,45.84
2023-07-22T19:10:46.310Z,46.07
2023-07-22T19:13:17.350Z,46.33
2023-07-22T19:15:52.060Z,46.33
2023-07-22T19:18:22.681Z,46.60
2023-07-22T19:21:01.016Z,46.92
2023-07-22T19:23:35.667Z,47.07
2023-07-22T19:26:08.516Z,47.03
2023-07-22T19:28:42.667Z,47.29
2023-07-22T19:31:16.491Z,47.54
2023-07-22T19:33:47.914Z,47.60
2023-07-22T19:36:23.513Z,47.68
2023-07-22T19:39:00.523Z,48.03
2023-07-22T19:41:31.161Z,47.79
2023-07-22T19:44:04.939Z,48.17
2023-07-22T19:46:35.492Z,48.30
2023-07-22T19:49:06.101Z,48.40
2023-07-22T19:51:36.803Z,48.86
2023-07-22T19:54:08.723Z,48.71
2023-07-22T19:56:41.975Z,48.83
2023-07-22T19:59:12.418Z,48.78
2023-07-22T20:01:45.120Z,48.88
2023-07-22T20:04:19.719Z,49.19
2023-07-22T20:06:53.191Z,49.26
2023-07-22T20:09:24.258Z,49.42
2023-07-22T20:11:56.441Z,49.39
2023-07-22T20:14:34.042Z,49.44
2023-07-22T20:17:12.422Z,49.54
2023-07-22T20:19:52.434Z,49.80
2023-07-22T20:22:27.794Z,49.87
2023-07-22T20:24:58.126Z,50.06
2023-07-22T20:27:32.391Z,50.06
2023-07-22T20:30:04.262Z,50.12
2023-07-22T20:32:37.679Z,50.45
2023-07-22T20:35:13.996Z,50.48
2023-07-22T20:37:47.650Z,50.63
2023-07-22T20:40:19.887Z,50.88
2023-07-22T20:42:52.456Z,50.88
2023-07-22T20:45:25.813Z,51.09
2023-07-22T20:47:56.819Z,50.97
2023-07-22T20:50:27.794Z,50.98
2023-07-22T20:53:06.878Z,51.33
2023-07-22T20:55:51.238Z,51.32
2023-07-22T20:58:23.961Z,51.65
2023-07-22T21:01:02.690Z,51.43
2023-07-22T21:03:33.320Z,51.67
2023-07-22T21:06:04.046Z,51.67
2023-07-22T21:08:36.715Z,51.89
2023-07-22T21:11:12.101Z,51.93
2023-07-22T21:13:42.847Z,52.25
2023-07-22T21:16:16.700Z,52.26
2023-07-22T21:18:49.734Z,52.34
2023-07-22T21:21:23.469Z,52.37
2023-07-22T21:23:54.083Z,52.65
2023-07-22T21:26:27.697Z,52.58
2023-07-22T21:29:00.320Z,52.55
2023-07-22T21:31:32.285Z,52.80
2023-07-22T21:34:14.302Z,53.03
2023-07-22T21:36:51.823Z,53.14
2023-07-22T21:39:21.238Z,52.90
2023-07-22T21:42:00.033Z,53.30
2023-07-22T21:44:32.029Z,53.08
2023-07-22T21:47:03.841Z,53.20
2023-07-22T21:49:38.629Z,53.62
2023-07-22T21:52:09.954Z,53.74
2023-07-22T21:54:40.865Z,53.96
2023-07-22T21:57:11.800Z,53.95
2023-07-22T21:59:43.657Z,53.97
2023-07-22T22:02:14.745Z,54.07
2023-07-22T22:04:53.852Z,54.33
2023-07-22T22:07:23.076Z,54.47
2023-07-22T22:09:52.520Z,54.73
2023-07-22T22:12:21.558Z,54.69
2023-07-22T22:14:54.511Z,54.75
2023-07-22T22:17:23.675Z,54.88
2023-07-22T22:19:52.914Z,54.92
2023-07-22T22:22:26.013Z,55.22
2023-07-22T22:24:55.009Z,55.32
2023-07-22T22:27:25.143Z,55.38
2023-07-22T22:29:54.592Z,55.71
2023-07-22T22:32:24.082Z,55.66
2023-07-22T22:34:55.602Z,55.82
2023-07-22T22:37:24.758Z,55.90
2023-07-22T22:39:54.779Z,56.24
2023-07-22T22:42:25.909Z,56.18
2023-07-22T22:44:57.276Z,56.39
2023-07-22T22:47:26.280Z,56.28
2023-07-22T22:49:56.975Z,56.37
2023-07-22T22:52:25.917Z,56.53
2023-07-22T22:54:55.100Z,56.54
2023-07-22T22:57:24.559Z,56.57
2023-07-22T22:59:53.575Z,56.71
2023-07-22T23:02:22.650Z,56.83
2023-07-22T23:04:55.609Z,56.79
2023-07-22T23:07:33.370Z,56.80
2023-07-22T23:10:06.233Z,56.87
2023-07-22T23:12:39.973Z,56.83
2023-07-22T23:15:48.087Z,56.99
2023-07-22T23:18:22.999Z,56.93
2023-07-22T23:21:05.432Z,57.12
2023-07-22T23:23:44.624Z,57.13
2023-07-22T23:26:14.121Z,57.17
2023-07-22T23:28:51.890Z,57.23
2023-07-22T23:31:21.577Z,57.33
2023-07-22T23:33:51.376Z,57.27
2023-07-22T23:36:21.307Z,57.35
2023-07-22T23:38:54.521Z,57.53
2023-07-22T23:41:28.142Z,57.56
2023-07-22T23:44:00.127Z,57.69
2023-07-22T23:46:35.146Z,57.89
2023-07-22T23:49:08.518Z,57.91
2023-07-22T23:51:54.554Z,57.93
2023-07-22T23:54:25.017Z,58.12
2023-07-22T23:56:57.305Z,58.31
2023-07-22T23:59:26.810Z,58.32
